Time;durP1;ratioP1;P1;durP2;ratioP2;P2;SDS_P1;SDS_P2;PMS_P1;PMS_P2;Temp;Humidity;BMP_temperature;BMP_pressure;BME280_temperature;BME280_humidity;BME280_pressure;Samples;Min_cycle;Max_cycle;Signal;HPM_P1;HPM_P2
2024/02/29 00:00:48;;;;;;;7.30;5.00;;;7.20;99.90;;;;;;5011877;28;20478;-68
2024/02/29 00:03:14;;;;;;;10.50;5.13;;;7.10;99.90;;;;;;5010698;28;20461;-68
2024/02/29 00:05:43;;;;;;;8.83;5.83;;;7.20;99.90;;;;;;5014911;28;20448;-68
2024/02/29 00:08:13;;;;;;;8.17;4.33;;;7.20;99.90;;;;;;5011221;28;20547;-69
2024/02/29 00:10:39;;;;;;;8.90;4.07;;;7.20;99.90;;;;;;5010279;28;20464;-68
2024/02/29 00:13:06;;;;;;;6.70;3.70;;;7.10;99.90;;;;;;5010639;28;20461;-68
2024/02/29 00:15:33;;;;;;;5.10;3.53;;;7.00;99.90;;;;;;5012188;28;20578;-68
2024/02/29 00:18:00;;;;;;;15.90;5.00;;;6.80;99.90;;;;;;5013640;28;20472;-68
2024/02/29 00:20:26;;;;;;;11.73;5.10;;;6.80;99.90;;;;;;5006868;28;20483;-69
2024/02/29 00:22:54;;;;;;;6.77;4.33;;;6.80;99.90;;;;;;5009022;28;20465;-68
2024/02/29 00:25:21;;;;;;;6.00;4.13;;;6.80;99.90;;;;;;5009800;28;20465;-69
2024/02/29 00:27:48;;;;;;;7.70;4.70;;;6.80;99.90;;;;;;5008406;28;20483;-68
2024/02/29 00:30:16;;;;;;;9.07;3.37;;;6.90;99.90;;;;;;5004537;28;20480;-69
2024/02/29 00:32:43;;;;;;;14.80;5.97;;;6.80;99.90;;;;;;5007251;28;20492;-69
2024/02/29 00:35:10;;;;;;;7.97;6.50;;;6.90;99.90;;;;;;5013742;28;20878;-69
2024/02/29 00:37:37;;;;;;;6.17;3.67;;;6.90;99.90;;;;;;5010083;28;20461;-69
2024/02/29 00:40:07;;;;;;;8.00;4.60;;;6.80;99.90;;;;;;5007864;28;20484;-69
2024/02/29 00:42:35;;;;;;;7.60;3.73;;;6.60;99.90;;;;;;5005959;28;20469;-69
2024/02/29 00:45:01;;;;;;;4.47;3.10;;;6.60;99.90;;;;;;5005854;28;20462;-69
2024/02/29 00:47:28;;;;;;;4.93;3.67;;;6.50;99.90;;;;;;5011590;28;20478;-69
2024/02/29 00:49:55;;;;;;;7.00;3.50;;;6.50;99.90;;;;;;5014189;28;20484;-69
2024/02/29 00:52:21;;;;;;;10.17;4.67;;;6.40;99.90;;;;;;5013442;28;20492;-69
2024/02/29 00:54:48;;;;;;;8.07;3.50;;;6.50;99.90;;;;;;5012818;28;20460;-69
2024/02/29 00:57:16;;;;;;;7.67;4.20;;;6.70;99.90;;;;;;5010829;28;20918;-69
2024/02/29 00:59:43;;;;;;;6.47;2.63;;;6.70;99.90;;;;;;5012819;28;20492;-69
2024/02/29 01:02:10;;;;;;;5.67;3.17;;;6.70;99.90;;;;;;5008992;28;20461;-69
2024/02/29 01:04:37;;;;;;;5.40;3.30;;;6.70;99.90;;;;;;5014361;28;20439;-69
2024/02/29 01:07:07;;;;;;;7.50;3.97;;;6.80;99.90;;;;;;5011782;28;20503;-69
2024/02/29 01:09:36;;;;;;;5.57;4.07;;;6.70;99.90;;;;;;5007644;28;20496;-69
2024/02/29 01:12:03;;;;;;;8.57;5.03;;;6.60;99.90;;;;;;5013746;28;20494;-69
2024/02/29 01:14:31;;;;;;;8.23;4.33;;;6.50;99.90;;;;;;5006566;28;20463;-69
2024/02/29 01:16:58;;;;;;;6.23;3.33;;;6.70;99.90;;;;;;5008633;28;20481;-69
2024/02/29 01:19:25;;;;;;;4.10;3.37;;;6.60;99.90;;;;;;5011577;28;20471;-69
2024/02/29 01:21:51;;;;;;;4.30;3.10;;;6.70;99.90;;;;;;5008222;28;20480;-69
2024/02/29 01:24:18;;;;;;;5.63;3.63;;;6.80;99.90;;;;;;5006555;28;20446;-69
2024/02/29 01:26:45;;;;;;;6.70;3.00;;;6.70;99.90;;;;;;5011610;28;20865;-69
2024/02/29 01:29:12;;;;;;;6.63;3.07;;;6.70;99.90;;;;;;5011558;28;20481;-69
2024/02/29 01:31:40;;;;;;;4.23;2.73;;;6.60;99.90;;;;;;5006609;28;20483;-69
2024/02/29 01:34:06;;;;;;;3.47;2.90;;;6.50;99.90;;;;;;5008599;28;20483;-69
2024/02/29 01:36:33;;;;;;;13.07;3.33;;;6.40;99.90;;;;;;5008356;28;20485;-67
2024/02/29 01:39:00;;;;;;;7.20;3.43;;;6.40;99.90;;;;;;5005744;28;20489;-69
2024/02/29 01:41:27;;;;;;;7.13;4.00;;;6.40;99.90;;;;;;5006406;28;20838;-69
2024/02/29 01:43:54;;;;;;;9.60;3.60;;;6.40;99.90;;;;;;5002860;28;20469;-70
2024/02/29 01:46:21;;;;;;;7.27;3.83;;;6.40;99.90;;;;;;5011684;28;20488;-69
2024/02/29 01:48:49;;;;;;;3.10;2.70;;;6.30;99.90;;;;;;5007090;28;20507;-70
2024/02/29 01:51:18;;;;;;;4.87;3.53;;;6.30;99.90;;;;;;5008826;28;20463;-70
2024/02/29 01:53:45;;;;;;;8.13;3.37;;;6.40;99.90;;;;;;5009028;28;20464;-69
2024/02/29 01:56:13;;;;;;;6.40;5.33;;;6.40;99.90;;;;;;5001348;28;20484;-69
2024/02/29 01:58:41;;;;;;;7.27;3.23;;;6.30;99.90;;;;;;5002931;28;20490;-69
2024/02/29 02:01:08;;;;;;;11.67;3.93;;;6.30;99.90;;;;;;5004147;28;20470;-69
2024/02/29 02:03:35;;;;;;;4.80;3.47;;;6.30;99.90;;;;;;5001477;28;20453;-69
2024/02/29 02:06:04;;;;;;;3.77;2.97;;;6.30;99.90;;;;;;5004053;28;20482;-69
2024/02/29 02:08:33;;;;;;;5.90;3.30;;;6.30;99.90;;;;;;5008967;28;20466;-70
2024/02/29 02:11:00;;;;;;;4.53;3.90;;;6.30;99.90;;;;;;5006136;28;20476;-70
2024/02/29 02:13:27;;;;;;;5.23;3.33;;;6.40;99.90;;;;;;5006639;28;20457;-70
2024/02/29 02:15:53;;;;;;;2.97;1.80;;;6.50;99.90;;;;;;5006155;28;20457;-69
2024/02/29 02:18:20;;;;;;;8.20;4.27;;;6.50;99.90;;;;;;5008510;28;20464;-68
2024/02/29 02:20:49;;;;;;;3.80;3.23;;;6.50;99.90;;;;;;5009636;28;20471;-68
2024/02/29 02:23:16;;;;;;;3.80;1.90;;;6.50;99.90;;;;;;5011091;28;20471;-68
2024/02/29 02:25:43;;;;;;;5.67;2.97;;;6.40;99.90;;;;;;5015445;28;20460;-68
2024/02/29 02:28:11;;;;;;;6.33;4.87;;;6.30;99.90;;;;;;5007453;28;20453;-69
2024/02/29 02:30:38;;;;;;;5.50;3.63;;;6.30;99.90;;;;;;5008867;28;20524;-69
2024/02/29 02:33:05;;;;;;;13.50;3.80;;;6.30;99.90;;;;;;5013242;28;20469;-68
2024/02/29 02:35:33;;;;;;;5.23;3.43;;;6.40;99.90;;;;;;5014291;28;20515;-69
2024/02/29 02:38:03;;;;;;;7.57;3.60;;;6.40;99.90;;;;;;5013066;28;20570;-69
2024/02/29 02:40:29;;;;;;;5.30;3.00;;;6.40;99.90;;;;;;5015005;28;20533;-69
2024/02/29 02:42:56;;;;;;;4.40;2.60;;;6.40;99.90;;;;;;5013638;28;20475;-69
2024/02/29 02:45:23;;;;;;;7.30;4.80;;;6.40;99.90;;;;;;5011624;28;20467;-69
2024/02/29 02:47:49;;;;;;;4.50;2.07;;;6.40;99.90;;;;;;5015306;28;20773;-69
2024/02/29 02:50:16;;;;;;;7.53;2.80;;;6.40;99.90;;;;;;5015125;28;20484;-69
2024/02/29 02:52:43;;;;;;;7.70;2.90;;;6.30;99.90;;;;;;5014454;28;20452;-69
2024/02/29 02:55:11;;;;;;;8.43;3.10;;;6.40;99.90;;;;;;5017407;28;20461;-69
2024/02/29 02:57:38;;;;;;;4.53;3.03;;;6.40;99.90;;;;;;5017399;28;20488;-69
2024/02/29 03:00:06;;;;;;;5.80;3.17;;;6.30;99.90;;;;;;5015926;28;20961;-69
2024/02/29 03:02:33;;;;;;;7.83;3.50;;;6.30;99.90;;;;;;5015000;28;20563;-69
2024/02/29 03:05:00;;;;;;;9.13;4.57;;;6.30;99.90;;;;;;5015993;28;20440;-69
2024/02/29 03:07:27;;;;;;;7.83;3.73;;;6.30;99.90;;;;;;5023834;28;20464;-69
2024/02/29 03:09:53;;;;;;;3.70;3.33;;;6.30;99.90;;;;;;5016599;28;20479;-69
2024/02/29 03:12:21;;;;;;;10.07;4.33;;;6.30;99.90;;;;;;5015300;28;21156;-69
2024/02/29 03:14:49;;;;;;;4.37;3.97;;;6.20;99.90;;;;;;5007592;28;20743;-69
2024/02/29 03:17:15;;;;;;;5.60;3.13;;;6.10;99.90;;;;;;5009517;28;20498;-69
2024/02/29 03:19:45;;;;;;;4.20;2.47;;;6.20;99.90;;;;;;5003473;28;20484;-69
2024/02/29 03:22:13;;;;;;;5.43;3.53;;;6.20;99.90;;;;;;5005218;28;26055;-69
2024/02/29 03:24:41;;;;;;;4.03;2.50;;;6.10;99.90;;;;;;5008387;28;20475;-69
2024/02/29 03:27:08;;;;;;;5.57;2.80;;;6.10;99.90;;;;;;5001673;28;20527;-69
2024/02/29 03:29:36;;;;;;;7.33;3.67;;;6.00;99.90;;;;;;5007884;28;20535;-69
2024/02/29 03:32:03;;;;;;;3.53;3.23;;;6.10;99.90;;;;;;5007481;28;20475;-69
2024/02/29 03:34:30;;;;;;;2.63;2.43;;;6.00;99.90;;;;;;5013353;28;20494;-69
2024/02/29 03:36:57;;;;;;;6.10;3.10;;;5.90;99.90;;;;;;5015131;28;21129;-69
2024/02/29 03:39:24;;;;;;;6.27;3.47;;;5.90;99.90;;;;;;5018061;28;20495;-69
2024/02/29 03:41:50;;;;;;;4.50;2.73;;;6.00;99.90;;;;;;5008803;28;20457;-69
2024/02/29 03:44:17;;;;;;;5.10;3.87;;;6.00;99.90;;;;;;5012535;28;20467;-69
2024/02/29 03:46:45;;;;;;;8.67;4.00;;;5.90;99.90;;;;;;5014850;28;20526;-69
2024/02/29 03:49:12;;;;;;;3.70;2.67;;;5.90;99.90;;;;;;5013981;28;20473;-69
2024/02/29 03:51:39;;;;;;;12.13;4.27;;;5.90;99.90;;;;;;5017802;28;20463;-69
2024/02/29 03:54:06;;;;;;;5.67;3.57;;;5.90;99.90;;;;;;5011888;28;20801;-69
2024/02/29 03:56:32;;;;;;;8.60;3.83;;;6.00;99.90;;;;;;5008420;28;20435;-69
2024/02/29 03:58:59;;;;;;;4.30;2.73;;;6.00;99.90;;;;;;5011624;28;21386;-69
2024/02/29 04:01:26;;;;;;;2.17;1.70;;;6.10;99.90;;;;;;5009968;28;20439;-69
2024/02/29 04:03:54;;;;;;;5.40;3.43;;;6.20;99.90;;;;;;5016672;28;20544;-69
2024/02/29 04:06:21;;;;;;;5.30;2.50;;;6.10;99.90;;;;;;5017282;28;20502;-69
2024/02/29 04:08:48;;;;;;;9.73;3.60;;;6.20;99.90;;;;;;5012927;28;20476;-68
2024/02/29 04:11:14;;;;;;;5.43;3.10;;;6.20;99.90;;;;;;5010952;28;20578;-68
2024/02/29 04:13:41;;;;;;;4.97;3.17;;;6.20;99.90;;;;;;5013898;28;20439;-68
2024/02/29 04:16:08;;;;;;;2.27;2.07;;;6.10;99.90;;;;;;5009686;28;20446;-68
2024/02/29 04:18:35;;;;;;;6.07;3.30;;;6.10;99.90;;;;;;5015243;28;20484;-69
2024/02/29 04:21:03;;;;;;;6.73;3.73;;;6.00;99.90;;;;;;5020599;28;20457;-69
2024/02/29 04:23:30;;;;;;;7.43;2.73;;;6.10;99.90;;;;;;5012711;28;20460;-69
2024/02/29 04:25:57;;;;;;;4.37;3.33;;;6.00;99.90;;;;;;5011588;28;20461;-69
2024/02/29 04:28:23;;;;;;;4.93;3.33;;;6.10;99.90;;;;;;5013595;28;20474;-69
2024/02/29 04:30:50;;;;;;;4.13;3.83;;;6.20;99.90;;;;;;5019950;28;20438;-69
2024/02/29 04:33:17;;;;;;;7.47;5.03;;;6.20;99.90;;;;;;5011952;28;20457;-69
2024/02/29 04:35:44;;;;;;;11.50;3.63;;;6.30;99.90;;;;;;5018228;28;20460;-69
2024/02/29 04:38:12;;;;;;;8.73;5.90;;;6.30;99.90;;;;;;5013536;28;20480;-69
2024/02/29 04:40:39;;;;;;;6.53;3.53;;;6.20;99.90;;;;;;5016130;28;20518;-70
2024/02/29 04:43:08;;;;;;;4.50;3.03;;;6.30;99.90;;;;;;5011743;28;20442;-69
2024/02/29 04:45:34;;;;;;;5.77;3.17;;;6.20;99.90;;;;;;5014793;28;20457;-69
2024/02/29 04:48:01;;;;;;;6.93;3.30;;;6.20;99.90;;;;;;5013139;28;20452;-69
2024/02/29 04:50:28;;;;;;;5.43;3.63;;;6.30;99.90;;;;;;5011170;28;21715;-69
2024/02/29 04:52:55;;;;;;;7.90;2.80;;;6.30;99.90;;;;;;5012135;28;21551;-69
2024/02/29 04:55:23;;;;;;;2.60;2.40;;;6.30;99.90;;;;;;5017135;28;20464;-68
2024/02/29 04:57:49;;;;;;;4.27;2.80;;;6.30;99.90;;;;;;5014024;28;20522;-68
2024/02/29 05:00:17;;;;;;;5.13;3.93;;;6.20;99.90;;;;;;5017958;28;20476;-69
2024/02/29 05:02:44;;;;;;;5.50;3.30;;;6.10;99.90;;;;;;5018213;28;20457;-69
2024/02/29 05:05:12;;;;;;;6.70;4.53;;;6.10;99.90;;;;;;5011043;28;20487;-69
2024/02/29 05:07:39;;;;;;;4.33;2.77;;;6.00;99.90;;;;;;5016684;28;20539;-69
2024/02/29 05:10:07;;;;;;;5.00;2.20;;;6.00;99.90;;;;;;5017975;28;20568;-71
2024/02/29 05:12:35;;;;;;;7.77;3.50;;;6.10;99.90;;;;;;5016875;28;20445;-71
2024/02/29 05:15:02;;;;;;;7.27;3.47;;;6.00;99.90;;;;;;5017214;28;20461;-71
2024/02/29 05:17:29;;;;;;;6.07;3.83;;;6.10;99.90;;;;;;5012221;28;20521;-70
2024/02/29 05:19:57;;;;;;;5.50;3.10;;;6.10;99.90;;;;;;5013640;28;20487;-71
2024/02/29 05:22:24;;;;;;;5.97;2.10;;;6.10;99.90;;;;;;5010629;28;20848;-71
2024/02/29 05:24:50;;;;;;;7.30;4.10;;;6.00;99.90;;;;;;5016686;28;20539;-70
2024/02/29 05:27:17;;;;;;;9.40;4.17;;;6.00;99.90;;;;;;5017839;28;20463;-71
2024/02/29 05:29:45;;;;;;;4.63;3.30;;;6.10;99.90;;;;;;5015837;28;20484;-71
2024/02/29 05:32:12;;;;;;;9.27;6.03;;;6.10;99.90;;;;;;5009739;28;20839;-70
2024/02/29 05:34:39;;;;;;;3.80;1.83;;;6.10;99.90;;;;;;5011608;28;20469;-71
2024/02/29 05:37:06;;;;;;;13.77;5.40;;;6.10;99.90;;;;;;5011622;28;20516;-71
2024/02/29 05:39:33;;;;;;;7.10;2.47;;;6.20;99.90;;;;;;5013689;28;20510;-71
2024/02/29 05:42:00;;;;;;;4.80;2.20;;;6.10;99.90;;;;;;5011222;28;20551;-71
2024/02/29 05:44:27;;;;;;;3.70;3.40;;;6.10;99.90;;;;;;5008851;28;20469;-71
2024/02/29 05:46:56;;;;;;;4.07;3.40;;;6.10;99.90;;;;;;5009650;28;20458;-71
2024/02/29 05:49:23;;;;;;;1.10;0.70;;;6.20;99.90;;;;;;5012077;28;20567;-71
2024/02/29 05:51:50;;;;;;;6.20;3.23;;;6.10;99.90;;;;;;5015747;28;21516;-71
2024/02/29 05:54:17;;;;;;;5.70;2.73;;;6.30;99.90;;;;;;5010482;28;20445;-71
2024/02/29 05:56:43;;;;;;;9.23;3.50;;;6.10;99.90;;;;;;5015607;28;20476;-71
2024/02/29 05:59:12;;;;;;;7.20;4.23;;;6.10;99.90;;;;;;5015688;28;20522;-71
2024/02/29 06:01:39;;;;;;;6.60;2.23;;;6.20;99.90;;;;;;5009460;28;21091;-71
2024/02/29 06:04:07;;;;;;;4.60;2.93;;;6.20;99.90;;;;;;5013773;28;20464;-70
2024/02/29 06:06:34;;;;;;;5.20;2.90;;;6.20;99.90;;;;;;5010365;28;20470;-70
2024/02/29 06:09:02;;;;;;;4.90;3.27;;;6.20;99.90;;;;;;5009085;28;20502;-69
2024/02/29 06:11:29;;;;;;;3.53;2.30;;;6.30;99.90;;;;;;5006870;28;20557;-69
2024/02/29 06:13:56;;;;;;;4.57;3.00;;;6.30;99.90;;;;;;5010223;28;20816;-69
2024/02/29 06:16:23;;;;;;;6.33;3.10;;;6.30;99.90;;;;;;5011741;28;20493;-69
2024/02/29 06:18:50;;;;;;;4.43;2.93;;;6.20;99.90;;;;;;5012499;28;20496;-69
2024/02/29 06:21:18;;;;;;;5.37;2.70;;;6.20;99.90;;;;;;5014479;28;20464;-69
2024/02/29 06:23:45;;;;;;;2.70;2.37;;;6.20;99.90;;;;;;5012847;28;20479;-69
2024/02/29 06:26:11;;;;;;;5.40;4.10;;;6.30;99.90;;;;;;5019967;28;20457;-69
2024/02/29 06:28:38;;;;;;;10.40;4.43;;;6.30;99.90;;;;;;5009286;28;21140;-68
2024/02/29 06:31:05;;;;;;;3.10;2.00;;;6.40;99.90;;;;;;5014406;28;20493;-69
2024/02/29 06:33:32;;;;;;;12.83;3.63;;;6.30;99.90;;;;;;5009093;28;20485;-69
2024/02/29 06:35:59;;;;;;;7.93;3.63;;;6.30;99.90;;;;;;5012545;28;20552;-69
2024/02/29 06:38:27;;;;;;;6.07;4.10;;;6.40;99.90;;;;;;5011205;28;20493;-68
2024/02/29 06:40:53;;;;;;;4.73;2.90;;;6.50;99.90;;;;;;5012099;28;20479;-69
2024/02/29 06:43:20;;;;;;;8.97;2.30;;;6.60;99.90;;;;;;5009436;28;20543;-69
2024/02/29 06:45:48;;;;;;;6.13;3.63;;;6.80;99.90;;;;;;5016173;28;20467;-69
2024/02/29 06:48:16;;;;;;;6.70;3.10;;;6.60;99.90;;;;;;5014953;28;20511;-69
2024/02/29 06:50:43;;;;;;;4.37;3.07;;;6.60;99.90;;;;;;5013927;28;20571;-69
2024/02/29 06:53:10;;;;;;;7.10;3.30;;;6.80;99.90;;;;;;5014499;28;20813;-69
2024/02/29 06:55:38;;;;;;;2.20;1.90;;;6.90;99.90;;;;;;5018561;28;20464;-69
2024/02/29 06:58:06;;;;;;;6.30;3.40;;;7.00;99.90;;;;;;5015352;28;20992;-69
2024/02/29 07:00:33;;;;;;;3.37;1.63;;;7.10;99.90;;;;;;5010020;28;20814;-68
2024/02/29 07:03:00;;;;;;;2.13;1.90;;;7.20;99.90;;;;;;5012472;28;20468;-68
2024/02/29 07:05:27;;;;;;;4.83;3.23;;;7.40;99.90;;;;;;5008201;28;20556;-68
2024/02/29 07:07:55;;;;;;;4.23;3.37;;;7.40;99.90;;;;;;5015276;28;20472;-69
2024/02/29 07:10:22;;;;;;;5.80;4.53;;;7.50;99.90;;;;;;5012490;28;21233;-69
2024/02/29 07:12:50;;;;;;;3.80;1.30;;;7.50;99.90;;;;;;5014234;28;20452;-69
2024/02/29 07:15:17;;;;;;;2.30;1.60;;;7.50;99.90;;;;;;5013182;28;20484;-70
2024/02/29 07:17:43;;;;;;;4.17;2.30;;;7.50;99.90;;;;;;5013531;28;20455;-70
2024/02/29 07:20:13;;;;;;;6.30;2.40;;;7.30;99.90;;;;;;5011228;28;20493;-70
2024/02/29 07:22:39;;;;;;;2.40;2.10;;;7.50;99.90;;;;;;5009667;28;21342;-70
2024/02/29 07:25:08;;;;;;;2.93;1.90;;;7.50;99.90;;;;;;5013303;28;20448;-68
2024/02/29 07:27:37;;;;;;;4.97;2.83;;;7.60;99.90;;;;;;5016938;28;20546;-68
2024/02/29 07:30:08;;;;;;;1.50;1.27;;;7.60;99.90;;;;;;5011111;28;20472;-68
2024/02/29 07:32:35;;;;;;;8.40;3.70;;;7.60;99.90;;;;;;5004610;28;21011;-68
2024/02/29 07:35:01;;;;;;;4.70;3.10;;;7.50;99.90;;;;;;5014920;28;20475;-68
2024/02/29 07:37:29;;;;;;;2.90;2.00;;;7.70;99.90;;;;;;5012586;28;20465;-68
2024/02/29 07:39:55;;;;;;;1.57;1.47;;;7.80;99.90;;;;;;5013292;28;20569;-68
2024/02/29 07:42:22;;;;;;;5.43;2.53;;;7.90;99.90;;;;;;5011035;28;20987;-69
2024/02/29 07:44:49;;;;;;;2.70;1.80;;;8.00;99.90;;;;;;5014558;28;20473;-68
2024/02/29 07:47:17;;;;;;;6.47;2.70;;;7.80;99.90;;;;;;5014668;28;20479;-67
2024/02/29 07:49:44;;;;;;;3.70;2.23;;;7.90;99.90;;;;;;5009286;28;21033;-67
2024/02/29 07:52:11;;;;;;;5.40;2.33;;;8.10;99.90;;;;;;5008449;28;20475;-68
2024/02/29 07:54:37;;;;;;;1.87;1.77;;;8.30;99.90;;;;;;5004679;28;21012;-68
2024/02/29 07:57:04;;;;;;;2.83;2.07;;;8.40;99.90;;;;;;5009816;28;20468;-68
2024/02/29 07:59:32;;;;;;;3.90;1.93;;;8.30;99.90;;;;;;5016040;28;20503;-67
2024/02/29 08:01:58;;;;;;;2.60;2.00;;;8.50;99.90;;;;;;5022804;28;20579;-68
2024/02/29 08:04:26;;;;;;;3.00;2.17;;;8.90;99.90;;;;;;5016781;28;20461;-68
2024/02/29 08:06:53;;;;;;;6.17;3.30;;;9.30;99.90;;;;;;5016935;28;20464;-68
2024/02/29 08:09:20;;;;;;;2.80;1.93;;;9.30;99.90;;;;;;5014487;28;20489;-68
2024/02/29 08:11:47;;;;;;;2.67;2.30;;;9.60;99.90;;;;;;5014238;28;20476;-69
2024/02/29 08:14:13;;;;;;;4.57;2.47;;;9.90;99.90;;;;;;5009780;28;20464;-69
2024/02/29 08:16:40;;;;;;;3.87;2.47;;;10.30;99.90;;;;;;5013067;28;20466;-68
2024/02/29 08:19:07;;;;;;;2.47;1.70;;;10.40;99.90;;;;;;5010738;28;20492;-69
2024/02/29 08:21:36;;;;;;;7.50;2.90;;;10.70;99.90;;;;;;5008734;28;20500;-69
2024/02/29 08:24:03;;;;;;;4.17;2.63;;;11.30;99.90;;;;;;5009581;28;20472;-69
2024/02/29 08:26:38;;;;;;;10.60;3.37;;;11.70;99.90;;;;;;5012792;28;20468;-69
2024/02/29 08:29:04;;;;;;;3.90;2.50;;;12.30;99.90;;;;;;5016434;28;20484;-69
2024/02/29 08:31:31;;;;;;;4.13;2.30;;;12.50;99.90;;;;;;5019226;28;20552;-69
2024/02/29 08:33:58;;;;;;;4.30;2.53;;;13.00;99.90;;;;;;5009985;28;21265;-69
2024/02/29 08:36:25;;;;;;;8.67;3.33;;;13.50;99.90;;;;;;5012905;28;20498;-69
2024/02/29 08:38:53;;;;;;;4.40;2.57;;;13.70;99.90;;;;;;5011133;28;20892;-69
2024/02/29 08:41:20;;;;;;;5.57;2.13;;;14.20;99.90;;;;;;5005801;28;20456;-69
2024/02/29 08:43:46;;;;;;;4.53;2.70;;;14.60;99.60;;;;;;5011271;28;20465;-69
2024/02/29 08:46:13;;;;;;;3.10;2.03;;;14.80;98.50;;;;;;5019358;28;20452;-69
2024/02/29 08:48:40;;;;;;;5.47;3.30;;;14.30;97.90;;;;;;5013102;28;20546;-69
2024/02/29 08:51:07;;;;;;;5.80;2.83;;;13.90;98.80;;;;;;5016159;28;20475;-69
2024/02/29 08:53:33;;;;;;;5.97;3.30;;;13.90;98.80;;;;;;5016543;28;20461;-69
2024/02/29 08:56:03;;;;;;;5.70;2.50;;;14.10;97.80;;;;;;5012554;28;20456;-69
2024/02/29 08:58:30;;;;;;;4.43;2.60;;;14.30;98.10;;;;;;5011343;28;20573;-69
2024/02/29 09:00:57;;;;;;;3.43;1.97;;;14.70;97.10;;;;;;5010877;28;20461;-69
2024/02/29 09:03:25;;;;;;;4.23;2.30;;;15.00;97.20;;;;;;5020253;28;20461;-69
2024/02/29 09:05:51;;;;;;;5.00;2.57;;;15.00;96.20;;;;;;5016015;28;20465;-69
2024/02/29 09:08:18;;;;;;;3.80;2.80;;;15.40;95.70;;;;;;5013766;28;20916;-69
2024/02/29 09:10:45;;;;;;;4.43;2.73;;;15.20;95.50;;;;;;5018410;28;20483;-69
2024/02/29 09:13:14;;;;;;;6.53;3.27;;;15.30;96.20;;;;;;5013582;28;20457;-69
2024/02/29 09:15:41;;;;;;;6.57;3.10;;;15.00;95.20;;;;;;5011807;28;21035;-67
2024/02/29 09:18:08;;;;;;;5.27;2.50;;;15.20;95.50;;;;;;5011152;28;20542;-67
2024/02/29 09:20:35;;;;;;;8.40;3.70;;;15.90;95.00;;;;;;5006607;28;20465;-68
2024/02/29 09:23:02;;;;;;;5.20;2.63;;;16.10;94.40;;;;;;5010581;28;20472;-68
2024/02/29 09:25:28;;;;;;;3.20;2.33;;;16.50;93.70;;;;;;5012889;28;20483;-68
2024/02/29 09:27:55;;;;;;;4.77;2.70;;;16.60;92.70;;;;;;5008561;28;20460;-68
2024/02/29 09:30:23;;;;;;;5.20;2.63;;;16.80;92.30;;;;;;5014672;28;20512;-68
2024/02/29 09:32:52;;;;;;;5.17;2.63;;;16.80;92.40;;;;;;5012103;28;20461;-68
2024/02/29 09:35:19;;;;;;;7.20;2.93;;;16.70;92.10;;;;;;5011649;28;20470;-68
2024/02/29 09:37:46;;;;;;;4.53;2.50;;;17.40;92.50;;;;;;5010408;28;20899;-68
2024/02/29 09:40:15;;;;;;;3.77;1.80;;;17.30;90.80;;;;;;5009671;28;20484;-68
2024/02/29 09:42:44;;;;;;;7.33;2.87;;;17.40;89.60;;;;;;5008729;28;20456;-68
2024/02/29 09:45:12;;;;;;;8.43;1.93;;;17.30;91.20;;;;;;5011812;28;20498;-68
2024/02/29 09:47:41;;;;;;;4.03;2.50;;;18.00;88.40;;;;;;5010245;28;22240;-68
2024/02/29 09:50:12;;;;;;;3.27;2.00;;;17.50;87.20;;;;;;5012016;28;20933;-68
2024/02/29 09:52:39;;;;;;;3.20;2.00;;;16.90;88.10;;;;;;5011562;28;20476;-68
2024/02/29 09:55:13;;;;;;;5.20;2.57;;;16.90;88.40;;;;;;5009311;28;20995;-69
2024/02/29 09:57:41;;;;;;;4.07;2.40;;;16.90;89.30;;;;;;5006689;28;22053;-68
2024/02/29 10:00:10;;;;;;;3.10;1.63;;;17.10;88.40;;;;;;5011312;28;20484;-68
2024/02/29 10:02:42;;;;;;;4.30;2.53;;;17.50;88.40;;;;;;5009264;28;20453;-68
2024/02/29 10:05:10;;;;;;;3.20;2.03;;;16.90;87.80;;;;;;5017057;28;20460;-68
2024/02/29 10:07:42;;;;;;;3.40;1.80;;;16.60;88.00;;;;;;5012555;28;20461;-69
2024/02/29 10:10:12;;;;;;;2.30;1.43;;;16.40;87.80;;;;;;5006547;28;20530;-68
2024/02/29 10:12:39;;;;;;;4.63;2.13;;;16.10;88.80;;;;;;5011677;28;20468;-68
2024/02/29 10:15:10;;;;;;;2.60;1.40;;;16.00;90.10;;;;;;5014614;28;20896;-69
2024/02/29 10:17:37;;;;;;;5.47;2.30;;;16.20;90.10;;;;;;5010929;28;20464;-68
2024/02/29 10:20:07;;;;;;;2.70;1.63;;;15.80;90.40;;;;;;5006514;28;20487;-68
2024/02/29 10:22:34;;;;;;;3.00;2.33;;;16.70;90.30;;;;;;5011251;28;20469;-68
2024/02/29 10:25:02;;;;;;;7.43;2.13;;;16.30;89.40;;;;;;5008677;28;20826;-69
2024/02/29 10:27:29;;;;;;;3.10;2.07;;;16.00;89.80;;;;;;5011487;28;20818;-68
2024/02/29 10:29:58;;;;;;;1.93;1.47;;;15.90;90.40;;;;;;5012177;28;21026;-68
2024/02/29 10:32:24;;;;;;;2.17;1.60;;;15.90;90.90;;;;;;5014637;28;20870;-68
2024/02/29 10:34:51;;;;;;;3.27;2.37;;;16.20;91.60;;;;;;5010935;28;20471;-68
2024/02/29 10:37:19;;;;;;;3.90;2.17;;;16.70;90.50;;;;;;5010775;28;20460;-68
2024/02/29 10:39:46;;;;;;;3.20;1.83;;;16.70;90.00;;;;;;5008414;28;20507;-68
2024/02/29 10:42:13;;;;;;;2.80;1.90;;;16.20;90.80;;;;;;5008424;28;20462;-69
2024/02/29 10:44:43;;;;;;;4.57;1.93;;;15.70;90.90;;;;;;5016361;28;20485;-68
2024/02/29 10:47:11;;;;;;;2.43;1.30;;;15.50;91.00;;;;;;5010858;28;20472;-68
2024/02/29 10:49:46;;;;;;;1.97;1.33;;;15.00;91.90;;;;;;5012477;28;20496;-68
2024/02/29 10:52:20;;;;;;;4.17;2.50;;;14.80;92.20;;;;;;5011908;28;21034;-68
2024/02/29 10:54:58;;;;;;;1.63;1.13;;;14.60;92.90;;;;;;5016611;28;20456;-69
2024/02/29 10:57:29;;;;;;;5.10;2.00;;;14.90;92.50;;;;;;5015096;28;20461;-68
2024/02/29 11:00:01;;;;;;;2.10;1.53;;;14.80;92.10;;;;;;5011835;28;20990;-68
2024/02/29 11:02:29;;;;;;;2.60;1.63;;;14.60;92.50;;;;;;5013733;28;20479;-69
2024/02/29 11:04:57;;;;;;;3.03;1.70;;;14.10;92.90;;;;;;5013719;28;20465;-69
2024/02/29 11:07:25;;;;;;;2.07;1.50;;;14.70;93.20;;;;;;5019731;28;20488;-69
2024/02/29 11:12:42;;;;;;;3.10;2.67;;;16.50;91.70;;;;;;5114060;23;20511;-72
2024/02/29 11:15:12;;;;;;;3.50;1.70;;;16.70;90.60;;;;;;5017217;28;20483;-73
2024/02/29 11:17:41;;;;;;;2.50;1.77;;;16.70;91.40;;;;;;5019770;28;20551;-72
2024/02/29 11:20:09;;;;;;;2.87;2.03;;;16.60;90.80;;;;;;5025426;28;20471;-72
2024/02/29 11:22:36;;;;;;;2.60;1.50;;;16.30;90.60;;;;;;5022653;28;20534;-72
2024/02/29 11:25:09;;;;;;;9.13;2.00;;;16.20;90.80;;;;;;5025021;28;20468;-72
2024/02/29 11:27:36;;;;;;;2.20;1.60;;;16.20;91.60;;;;;;5014292;28;20965;-72
2024/02/29 11:30:06;;;;;;;2.73;1.97;;;15.30;91.60;;;;;;5019262;28;20491;-72
2024/02/29 11:32:33;;;;;;;3.33;2.87;;;15.20;92.20;;;;;;5024359;28;20483;-72
2024/02/29 11:35:01;;;;;;;2.60;2.10;;;15.10;91.90;;;;;;5022191;28;20487;-73
2024/02/29 11:37:29;;;;;;;1.30;1.07;;;15.30;92.20;;;;;;5027044;28;20479;-72
2024/02/29 11:40:04;;;;;;;2.70;1.70;;;15.20;92.00;;;;;;5024990;28;20476;-72
2024/02/29 11:42:30;;;;;;;3.37;1.53;;;15.10;92.70;;;;;;5023960;28;20468;-72
2024/02/29 11:44:57;;;;;;;3.37;1.90;;;15.50;93.20;;;;;;5026148;28;20767;-72
2024/02/29 11:47:25;;;;;;;2.40;1.90;;;15.60;91.90;;;;;;5026791;28;20472;-72
2024/02/29 11:49:52;;;;;;;10.20;2.20;;;15.50;92.10;;;;;;5026350;28;20503;-72
2024/02/29 11:52:19;;;;;;;3.30;2.30;;;15.50;92.90;;;;;;5014271;28;20579;-72
2024/02/29 11:54:46;;;;;;;2.30;2.10;;;15.20;93.40;;;;;;5021111;28;20457;-72
2024/02/29 11:57:13;;;;;;;1.97;1.50;;;15.00;92.90;;;;;;5025982;28;20463;-72
2024/02/29 11:59:39;;;;;;;1.93;1.20;;;14.80;92.90;;;;;;5020291;28;20817;-72
2024/02/29 12:02:06;;;;;;;2.40;1.40;;;14.50;93.10;;;;;;5024248;28;20594;-72
2024/02/29 12:04:34;;;;;;;6.30;4.10;;;14.40;92.90;;;;;;5019811;28;20463;-72
2024/02/29 12:07:02;;;;;;;2.97;2.50;;;14.20;93.60;;;;;;5026340;28;20486;-73
2024/02/29 12:09:32;;;;;;;4.63;2.70;;;14.20;94.20;;;;;;5025894;28;21307;-72
2024/02/29 12:12:00;;;;;;;19.73;2.97;;;14.10;93.80;;;;;;5023342;28;20523;-72
2024/02/29 12:14:27;;;;;;;5.17;3.80;;;14.20;94.40;;;;;;5023189;28;20483;-72
2024/02/29 12:16:53;;;;;;;2.50;2.23;;;14.30;94.20;;;;;;5022186;28;20474;-72
2024/02/29 12:19:20;;;;;;;4.37;2.37;;;14.20;94.40;;;;;;5023240;28;20483;-72
2024/02/29 12:21:48;;;;;;;2.00;1.80;;;14.20;94.20;;;;;;5021892;28;20464;-71
2024/02/29 12:24:16;;;;;;;2.90;2.10;;;14.10;94.50;;;;;;5020776;28;20479;-74
2024/02/29 12:26:42;;;;;;;3.67;2.43;;;14.30;95.30;;;;;;5020962;28;20591;-72
2024/02/29 12:29:10;;;;;;;3.10;1.60;;;14.40;95.50;;;;;;5024378;28;20529;-72
2024/02/29 12:31:36;;;;;;;3.57;2.20;;;14.40;95.00;;;;;;5023534;28;20460;-72
2024/02/29 12:34:04;;;;;;;2.43;1.60;;;14.20;95.10;;;;;;5022984;28;20468;-72
2024/02/29 12:36:32;;;;;;;5.77;2.63;;;14.20;95.40;;;;;;5021655;28;20556;-74
2024/02/29 12:39:01;;;;;;;7.20;2.13;;;14.20;96.20;;;;;;5020529;28;20587;-71
2024/02/29 12:41:28;;;;;;;3.53;2.83;;;14.40;96.30;;;;;;5021459;28;20551;-71
2024/02/29 12:43:56;;;;;;;4.10;2.07;;;14.40;95.50;;;;;;5022841;28;20457;-72
2024/02/29 12:46:23;;;;;;;4.83;2.77;;;14.10;95.60;;;;;;5021003;28;20875;-73
2024/02/29 12:48:50;;;;;;;3.77;1.40;;;14.00;96.10;;;;;;5021018;28;20823;-72
2024/02/29 12:51:17;;;;;;;2.00;1.83;;;14.00;96.50;;;;;;5020646;28;20489;-72
2024/02/29 12:53:43;;;;;;;3.10;2.17;;;13.80;96.40;;;;;;5023777;28;20472;-72
2024/02/29 12:56:11;;;;;;;6.43;1.50;;;14.10;96.40;;;;;;5019424;28;20461;-72